Time;durP1;ratioP1;P1;durP2;ratioP2;P2;SDS_P1;SDS_P2;PMS_P1;PMS_P2;Temp;Humidity;BMP_temperature;BMP_pressure;BME280_temperature;BME280_humidity;BME280_pressure;Samples;Min_cycle;Max_cycle;Signal;HPM_P1;HPM_P2
2023/06/01 00:00:17;;;;;;;6.10;3.60;;;;;;;11.67;100.00;96559.03;7396853;19;20488;-73
2023/06/01 00:02:45;;;;;;;4.87;2.97;;;;;;;11.73;100.00;96566.44;7394277;19;20753;-73
2023/06/01 00:05:13;;;;;;;5.90;3.37;;;;;;;11.56;100.00;96540.13;7393641;19;20346;-73
2023/06/01 00:07:40;;;;;;;3.90;3.20;;;;;;;11.43;100.00;96570.31;7395358;19;20349;-73
2023/06/01 00:10:07;;;;;;;5.77;3.13;;;;;;;11.58;100.00;96572.38;7393955;19;20380;-73
2023/06/01 00:12:34;;;;;;;3.17;2.90;;;;;;;11.03;100.00;96551.50;7394295;19;20397;-73
2023/06/01 00:15:01;;;;;;;4.33;3.97;;;;;;;11.14;100.00;96563.25;7393663;19;20364;-73
2023/06/01 00:17:28;;;;;;;5.13;3.70;;;;;;;11.37;100.00;96569.00;7394506;19;20893;-74
2023/06/01 00:19:56;;;;;;;7.53;4.00;;;;;;;11.29;100.00;96572.47;7393710;19;20372;-74
2023/06/01 00:22:28;;;;;;;4.07;3.67;;;;;;;11.24;100.00;96550.41;7394365;19;20417;-73
2023/06/01 00:24:55;;;;;;;5.37;3.80;;;;;;;11.23;100.00;96564.75;7394450;19;20356;-74
2023/06/01 00:27:22;;;;;;;7.50;3.20;;;;;;;11.03;100.00;96540.91;7395236;19;20716;-73
2023/06/01 00:29:49;;;;;;;4.13;3.47;;;;;;;10.72;100.00;96528.84;7395240;19;20356;-74
2023/06/01 00:32:16;;;;;;;8.80;3.40;;;;;;;10.84;100.00;96571.25;7252176;19;2832528;-73
2023/06/01 00:34:43;;;;;;;3.23;2.93;;;;;;;10.65;100.00;96537.28;7397925;19;20123;-73
2023/06/01 00:37:10;;;;;;;6.83;3.60;;;;;;;10.74;100.00;96534.59;7399571;19;20777;-73
2023/06/01 00:39:37;;;;;;;3.67;3.40;;;;;;;10.74;100.00;96565.56;7396871;19;20433;-73
2023/06/01 00:42:05;;;;;;;5.27;4.00;;;;;;;10.71;100.00;96556.41;7398622;19;20389;-73
2023/06/01 00:44:32;;;;;;;7.17;3.50;;;;;;;10.70;100.00;96559.38;7397822;19;20384;-73
2023/06/01 00:47:00;;;;;;;3.53;3.23;;;;;;;10.64;100.00;96554.25;7399411;19;20397;-73
2023/06/01 00:49:27;;;;;;;5.23;2.90;;;;;;;10.33;100.00;96496.44;7397769;19;20412;-74
2023/06/01 00:51:54;;;;;;;3.37;3.07;;;;;;;9.82;100.00;96507.19;7398863;19;20414;-73
2023/06/01 00:54:21;;;;;;;4.73;3.47;;;;;;;9.58;100.00;96516.44;7397474;19;20405;-74
2023/06/01 00:56:48;;;;;;;6.27;3.27;;;;;;;9.73;100.00;96526.47;7398850;19;20711;-73
2023/06/01 00:59:15;;;;;;;4.27;3.30;;;;;;;10.27;100.00;96516.19;7396260;19;20369;-73
2023/06/01 01:01:43;;;;;;;7.20;4.13;;;;;;;10.47;100.00;96545.66;7396686;19;20405;-73
2023/06/01 01:04:13;;;;;;;7.40;4.00;;;;;;;10.56;100.00;96543.75;7397005;19;20980;-74
2023/06/01 01:06:56;;;;;;;6.70;4.00;;;;;;;10.41;100.00;96509.91;7398344;19;20368;-73
2023/06/01 01:09:44;;;;;;;5.70;4.23;;;;;;;10.24;100.00;96524.00;7397617;19;20727;-73
2023/06/01 01:12:40;;;;;;;7.03;3.93;;;;;;;10.28;100.00;96536.28;7396382;19;20455;-73
2023/06/01 01:15:25;;;;;;;4.83;3.10;;;;;;;10.29;100.00;96550.25;7395671;19;20382;-73
2023/06/01 01:18:01;;;;;;;4.50;4.10;;;;;;;10.39;100.00;96534.00;7397994;19;20759;-72
2023/06/01 01:20:36;;;;;;;18.70;3.67;;;;;;;10.46;100.00;96521.09;7397373;19;20900;-73
2023/06/01 01:23:29;;;;;;;5.77;3.63;;;;;;;10.54;100.00;96527.41;7394788;19;20416;-73
2023/06/01 01:26:14;;;;;;;4.90;3.67;;;;;;;10.21;100.00;96546.53;7398288;19;20384;-73
2023/06/01 01:28:41;;;;;;;11.33;4.63;;;;;;;10.42;100.00;96548.47;7397634;19;20390;-72
2023/06/01 01:31:12;;;;;;;8.13;4.50;;;;;;;10.32;100.00;96552.25;7395723;19;20387;-72
2023/06/01 01:33:42;;;;;;;4.17;3.80;;;;;;;10.26;100.00;96548.22;7395650;19;20421;-72
2023/06/01 01:36:10;;;;;;;3.80;3.30;;;;;;;9.94;100.00;96516.00;7395313;19;20421;-73
2023/06/01 01:38:37;;;;;;;5.33;3.90;;;;;;;9.89;100.00;96536.56;7396967;19;20373;-72
2023/06/01 01:41:04;;;;;;;5.50;3.90;;;;;;;9.25;100.00;96531.25;7395966;19;20403;-72
2023/06/01 01:43:31;;;;;;;3.97;3.57;;;;;;;8.95;100.00;96535.56;7395840;19;20424;-72
2023/06/01 01:46:26;;;;;;;4.37;3.97;;;;;;;9.42;100.00;96539.13;7395789;19;20377;-72
2023/06/01 01:49:25;;;;;;;6.50;3.70;;;;;;;9.73;100.00;96533.63;7394278;19;20383;-72
2023/06/01 01:52:17;;;;;;;5.80;4.23;;;;;;;9.73;100.00;96530.97;7397348;19;20345;-73
2023/06/01 01:54:46;;;;;;;5.13;3.70;;;;;;;9.59;100.00;96531.19;7396693;19;20391;-73
2023/06/01 01:57:14;;;;;;;3.53;3.20;;;;;;;9.46;100.00;96482.75;7395726;19;20389;-73
2023/06/01 01:59:42;;;;;;;4.27;3.67;;;;;;;10.00;100.00;96527.16;7396309;19;20742;-73
2023/06/01 02:02:10;;;;;;;6.70;4.70;;;;;;;9.63;100.00;96460.84;7407248;19;20422;-70
2023/06/01 02:04:42;;;;;;;4.83;3.43;;;;;;;9.94;100.00;96517.88;7431850;19;20443;-71
2023/06/01 02:07:10;;;;;;;7.37;4.50;;;;;;;9.09;100.00;96521.19;7429866;19;20406;-70
2023/06/01 02:09:39;;;;;;;4.30;3.20;;;;;;;9.10;100.00;96485.81;7407320;19;20391;-73
2023/06/01 02:12:07;;;;;;;5.33;3.50;;;;;;;9.25;100.00;96510.91;7394252;19;20415;-73
2023/06/01 02:14:34;;;;;;;3.53;3.10;;;;;;;9.04;100.00;96502.06;7396829;19;20380;-73
2023/06/01 02:17:02;;;;;;;8.17;4.60;;;;;;;9.13;100.00;96510.78;7395052;19;20408;-73
2023/06/01 02:19:29;;;;;;;6.40;3.73;;;;;;;9.36;100.00;96520.06;7394825;19;20404;-74
2023/06/01 02:21:57;;;;;;;3.50;3.30;;;;;;;9.07;100.00;96494.31;7396138;19;20725;-73
2023/06/01 02:24:24;;;;;;;4.33;3.83;;;;;;;9.09;100.00;96505.34;7396358;19;20459;-73
2023/06/01 02:26:53;;;;;;;4.30;3.90;;;;;;;9.09;100.00;96512.50;7396165;19;20348;-73
2023/06/01 02:29:23;;;;;;;5.00;3.93;;;;;;;8.67;100.00;96488.44;7396567;19;20407;-73
2023/06/01 02:31:52;;;;;;;4.60;3.47;;;;;;;9.07;100.00;96506.72;7394379;19;20458;-73
2023/06/01 02:34:20;;;;;;;7.50;3.93;;;;;;;9.24;100.00;96496.19;7396146;19;20942;-73
2023/06/01 02:36:48;;;;;;;5.97;4.20;;;;;;;9.26;100.00;96512.47;7394636;19;20897;-73
2023/06/01 02:39:16;;;;;;;4.83;4.00;;;;;;;8.72;100.00;96490.94;7392180;19;20381;-73
2023/06/01 02:41:44;;;;;;;3.77;3.27;;;;;;;8.86;100.00;96483.63;7395256;19;20383;-73
2023/06/01 02:44:11;;;;;;;8.67;4.40;;;;;;;9.21;100.00;96503.91;7393491;19;20460;-73
2023/06/01 02:46:38;;;;;;;10.73;3.40;;;;;;;9.43;100.00;96511.66;7395868;19;20743;-73
2023/06/01 02:49:05;;;;;;;6.90;4.40;;;;;;;9.43;100.00;96512.44;7392998;19;20384;-73
2023/06/01 02:51:32;;;;;;;9.23;4.00;;;;;;;9.09;100.00;96486.13;7395009;19;20785;-73
2023/06/01 02:54:10;;;;;;;5.20;4.10;;;;;;;8.98;100.00;96487.53;7393411;19;20395;-73
2023/06/01 02:56:37;;;;;;;4.20;3.80;;;;;;;8.67;100.00;96495.56;7395549;19;20444;-73
2023/06/01 02:59:15;;;;;;;8.10;3.80;;;;;;;8.67;100.00;96496.34;7392640;19;20368;-73
2023/06/01 03:01:47;;;;;;;3.60;3.30;;;;;;;8.70;100.00;96487.06;7395181;19;20397;-73
2023/06/01 03:04:15;;;;;;;4.47;3.80;;;;;;;8.92;100.00;96494.78;7395284;19;20650;-73
2023/06/01 03:06:43;;;;;;;8.33;3.70;;;;;;;8.98;100.00;96503.34;7395756;19;20368;-73
2023/06/01 03:09:32;;;;;;;7.17;4.33;;;;;;;8.52;100.00;96479.13;7394427;19;20448;-73
2023/06/01 03:12:20;;;;;;;8.23;4.50;;;;;;;8.82;100.00;96469.53;7392799;19;20463;-73
2023/06/01 03:14:47;;;;;;;6.33;3.90;;;;;;;9.07;100.00;96490.91;7395458;19;20376;-73
2023/06/01 03:17:14;;;;;;;5.53;3.33;;;;;;;8.79;100.00;96467.50;7394551;19;20360;-73
2023/06/01 03:19:41;;;;;;;10.47;3.70;;;;;;;8.77;100.00;96482.84;7395262;19;20372;-73
2023/06/01 03:22:16;;;;;;;9.37;5.10;;;;;;;9.08;100.00;96492.44;7393097;19;20412;-73
2023/06/01 03:24:44;;;;;;;7.53;3.93;;;;;;;9.11;100.00;96492.63;7395200;19;20383;-73
2023/06/01 03:27:11;;;;;;;7.60;4.80;;;;;;;8.97;100.00;96494.66;7401327;19;20876;-73
2023/06/01 03:29:38;;;;;;;5.10;4.37;;;;;;;8.94;100.00;96497.13;7399948;19;20403;-73
2023/06/01 03:32:07;;;;;;;8.47;4.83;;;;;;;8.65;100.00;96466.88;7400726;19;20407;-73
2023/06/01 03:34:36;;;;;;;6.90;4.37;;;;;;;8.67;100.00;96458.66;7399347;19;20412;-73
2023/06/01 03:37:04;;;;;;;5.13;3.60;;;;;;;8.45;100.00;96476.19;7401536;19;20461;-73
2023/06/01 03:39:35;;;;;;;5.93;4.20;;;;;;;8.57;100.00;96465.81;7399748;19;20351;-73
2023/06/01 03:42:06;;;;;;;6.97;3.90;;;;;;;8.65;100.00;96477.41;7400630;19;20407;-73
2023/06/01 03:44:35;;;;;;;8.03;5.50;;;;;;;8.85;100.00;96499.78;7399565;19;20365;-73
2023/06/01 03:47:02;;;;;;;4.10;3.50;;;;;;;8.89;100.00;96500.69;7400961;19;20372;-73
2023/06/01 03:49:29;;;;;;;8.73;6.10;;;;;;;9.24;100.00;96490.91;7399414;19;20408;-73
2023/06/01 03:51:57;;;;;;;5.03;4.10;;;;;;;9.22;100.00;96495.72;7400955;19;20376;-73
2023/06/01 03:54:24;;;;;;;6.27;4.27;;;;;;;8.69;100.00;96445.97;7399869;19;20336;-73
2023/06/01 03:56:51;;;;;;;6.03;4.50;;;;;;;8.85;100.00;96489.22;7401471;19;20826;-73
2023/06/01 03:59:18;;;;;;;3.70;3.40;;;;;;;9.22;100.00;96495.72;7398472;19;20381;-73
2023/06/01 04:01:48;;;;;;;5.23;3.90;;;;;;;9.24;100.00;96471.66;7400442;19;20380;-73
2023/06/01 04:04:17;;;;;;;4.50;3.50;;;;;;;9.30;100.00;96484.34;7399409;19;20369;-73
2023/06/01 04:06:45;;;;;;;4.80;3.63;;;;;;;9.31;100.00;96458.75;7400827;19;20790;-73
2023/06/01 04:09:14;;;;;;;6.97;3.97;;;;;;;9.44;100.00;96492.88;7399740;19;20380;-73
2023/06/01 04:11:42;;;;;;;8.40;4.40;;;;;;;9.56;100.00;96494.84;7400559;19;20407;-73
2023/06/01 04:14:09;;;;;;;4.77;4.03;;;;;;;9.36;100.00;96498.97;7400146;19;20368;-74
2023/06/01 04:16:36;;;;;;;7.80;4.73;;;;;;;9.38;100.00;96498.63;7399504;19;20740;-73
2023/06/01 04:19:04;;;;;;;7.83;4.73;;;;;;;9.21;100.00;96504.69;7398525;19;20385;-74
2023/06/01 04:21:32;;;;;;;4.23;3.73;;;;;;;9.40;100.00;96509.66;7397796;19;20404;-73
2023/06/01 04:24:00;;;;;;;5.47;3.80;;;;;;;9.24;100.00;96480.34;7396889;19;20432;-73
2023/06/01 04:26:27;;;;;;;9.60;4.70;;;;;;;9.12;100.00;96504.72;7397967;19;20404;-73
2023/06/01 04:28:56;;;;;;;5.83;4.27;;;;;;;9.37;100.00;96503.13;7399568;19;20368;-73
2023/06/01 04:31:23;;;;;;;6.70;5.00;;;;;;;9.64;100.00;96504.63;7397781;19;20416;-73
2023/06/01 04:33:56;;;;;;;8.40;4.33;;;;;;;9.83;100.00;96479.69;7397038;19;20787;-74
2023/06/01 04:36:25;;;;;;;9.60;5.00;;;;;;;9.91;100.00;96482.31;7394852;19;20415;-73
2023/06/01 04:38:57;;;;;;;7.13;4.87;;;;;;;10.30;100.00;96498.94;7398595;19;20380;-73
2023/06/01 04:41:27;;;;;;;11.03;5.00;;;;;;;9.95;100.00;96461.31;7398092;19;20377;-73
2023/06/01 04:43:54;;;;;;;7.90;4.40;;;;;;;10.15;100.00;96479.09;7397476;19;20456;-73
2023/06/01 04:46:26;;;;;;;8.87;4.53;;;;;;;10.70;100.00;96507.25;7397907;19;20383;-73
2023/06/01 04:49:00;;;;;;;5.30;3.93;;;;;;;10.92;100.00;96511.44;7400489;19;20782;-73
2023/06/01 04:51:30;;;;;;;8.73;3.90;;;;;;;11.11;100.00;96513.63;7398048;19;20424;-73
2023/06/01 04:53:59;;;;;;;4.33;4.00;;;;;;;11.17;100.00;96514.97;7395268;19;20444;-73
2023/06/01 04:56:29;;;;;;;6.57;4.67;;;;;;;11.08;100.00;96493.09;7397792;19;20912;-73
2023/06/01 04:58:57;;;;;;;6.40;3.80;;;;;;;11.11;100.00;96481.88;7396889;19;20364;-73
2023/06/01 05:01:29;;;;;;;4.37;3.70;;;;;;;10.87;100.00;96479.88;7398547;19;20372;-73
2023/06/01 05:03:56;;;;;;;6.60;4.40;;;;;;;11.47;100.00;96502.38;7395248;19;20435;-73
2023/06/01 05:06:25;;;;;;;4.43;3.83;;;;;;;11.30;100.00;96510.50;7398182;19;20369;-73
2023/06/01 05:08:53;;;;;;;7.73;4.70;;;;;;;11.23;100.00;96469.47;7396944;19;20443;-73
2023/06/01 05:11:21;;;;;;;4.63;4.23;;;;;;;11.62;100.00;96474.50;7398008;19;20413;-73
2023/06/01 05:13:50;;;;;;;4.53;4.07;;;;;;;12.13;100.00;96504.94;7395451;19;20424;-73
2023/06/01 05:16:18;;;;;;;7.70;4.90;;;;;;;12.21;100.00;96497.97;7398600;19;20396;-74
2023/06/01 05:18:47;;;;;;;4.53;4.10;;;;;;;12.04;100.00;96481.19;7396841;19;20345;-73
2023/06/01 05:21:14;;;;;;;8.63;4.90;;;;;;;12.48;100.00;96515.09;7398666;19;20416;-73
2023/06/01 05:23:40;;;;;;;7.00;3.90;;;;;;;12.73;100.00;96504.09;7395470;19;20436;-74
2023/06/01 05:26:07;;;;;;;7.50;4.17;;;;;;;12.95;100.00;96505.50;7398266;19;20413;-73
2023/06/01 05:28:35;;;;;;;4.80;4.20;;;;;;;13.12;100.00;96498.34;7396476;19;20368;-73
2023/06/01 05:31:05;;;;;;;4.63;4.20;;;;;;;13.22;100.00;96514.63;7396804;19;20408;-74
2023/06/01 05:33:38;;;;;;;9.27;4.60;;;;;;;12.95;100.00;96486.13;7395324;19;20437;-71
2023/06/01 05:36:06;;;;;;;6.33;4.60;;;;;;;13.01;100.00;96506.78;7395639;19;20739;-71
2023/06/01 05:38:33;;;;;;;13.60;4.40;;;;;;;13.20;100.00;96516.03;7397260;19;20401;-72
2023/06/01 05:41:00;;;;;;;7.30;4.70;;;;;;;13.42;100.00;96512.09;7393765;19;20448;-72
2023/06/01 05:43:28;;;;;;;8.93;6.13;;;;;;;13.65;100.00;96515.72;7395317;19;20428;-72
2023/06/01 05:45:56;;;;;;;7.03;5.10;;;;;;;13.65;100.00;96491.03;7395374;19;20428;-72
2023/06/01 05:48:23;;;;;;;8.50;5.33;;;;;;;13.89;100.00;96504.94;7395439;19;20713;-72
2023/06/01 05:50:53;;;;;;;12.57;5.30;;;;;;;14.22;100.00;96511.03;7394682;19;20910;-72
2023/06/01 05:53:24;;;;;;;4.63;3.63;;;;;;;14.37;100.00;96513.66;7395183;19;20413;-72
2023/06/01 05:55:51;;;;;;;18.50;4.03;;;;;;;14.28;100.00;96514.94;7395401;19;20401;-73
2023/06/01 05:58:19;;;;;;;11.30;5.33;;;;;;;14.29;100.00;96498.66;7396898;19;20418;-72
2023/06/01 06:00:46;;;;;;;7.93;4.73;;;;;;;14.74;100.00;96513.34;7393733;19;20758;-73
2023/06/01 06:03:13;;;;;;;3.73;3.33;;;;;;;14.81;100.00;96510.06;7395245;19;20421;-73
2023/06/01 06:05:40;;;;;;;6.30;4.10;;;;;;;14.53;100.00;96459.66;7397053;19;20368;-73
2023/06/01 06:08:07;;;;;;;7.20;4.47;;;;;;;15.17;100.00;96517.66;7398373;19;20333;-73
2023/06/01 06:10:34;;;;;;;10.60;5.50;;;;;;;15.76;100.00;96513.84;7395578;19;20378;-73
2023/06/01 06:13:01;;;;;;;10.63;4.00;;;;;;;16.12;100.00;96523.19;7396975;19;20400;-73
2023/06/01 06:15:29;;;;;;;6.93;3.60;;;;;;;16.17;100.00;96498.91;7394836;19;20371;-73
2023/06/01 06:17:56;;;;;;;8.83;4.60;;;;;;;16.22;100.00;96506.59;7396929;19;20378;-74
2023/06/01 06:20:23;;;;;;;5.07;3.67;;;;;;;16.82;100.00;96522.72;7394037;19;20432;-73
2023/06/01 06:22:51;;;;;;;6.40;4.10;;;;;;;17.08;100.00;96507.78;7395493;19;20447;-73
2023/06/01 06:25:19;;;;;;;6.70;3.93;;;;;;;17.25;99.71;96504.56;7394898;19;20378;-74
2023/06/01 06:27:46;;;;;;;6.93;3.73;;;;;;;16.89;100.00;96470.53;7396353;19;20373;-74
2023/06/01 06:30:13;;;;;;;9.50;4.33;;;;;;;17.30;97.94;96519.50;7395275;19;20373;-74
2023/06/01 06:32:40;;;;;;;8.60;4.67;;;;;;;17.15;97.59;96513.22;7395668;19;20652;-73
2023/06/01 06:35:08;;;;;;;5.47;4.97;;;;;;;17.24;95.64;96496.91;7392244;19;20386;-74
2023/06/01 06:37:35;;;;;;;5.07;3.87;;;;;;;17.25;93.39;96511.81;7396277;19;20348;-74
2023/06/01 06:40:03;;;;;;;7.53;4.27;;;;;;;17.12;93.05;96503.25;7393727;19;20371;-74
2023/06/01 06:42:30;;;;;;;5.93;3.87;;;;;;;17.37;93.73;96517.69;7396982;19;20401;-73
2023/06/01 06:44:57;;;;;;;5.30;3.40;;;;;;;17.79;89.76;96507.81;7396294;19;20361;-75
2023/06/01 06:47:24;;;;;;;4.30;3.80;;;;;;;17.46;87.31;96487.97;7393148;19;20368;-73
2023/06/01 06:49:52;;;;;;;4.87;3.30;;;;;;;17.78;86.00;96522.34;7396015;19;20355;-74
2023/06/01 06:52:19;;;;;;;4.03;3.63;;;;;;;18.11;84.01;96524.13;7392462;19;20387;-74
2023/06/01 06:54:46;;;;;;;5.40;3.13;;;;;;;18.50;83.99;96519.84;7394796;19;20697;-74
2023/06/01 06:57:13;;;;;;;6.87;4.17;;;;;;;18.77;82.10;96507.03;7392852;19;20717;-74
2023/06/01 06:59:40;;;;;;;5.40;4.23;;;;;;;19.16;79.54;96519.84;7396585;19;20405;-74
2023/06/01 07:02:07;;;;;;;4.77;4.37;;;;;;;19.10;79.26;96505.28;7400441;19;20402;-74
2023/06/01 07:04:34;;;;;;;5.60;3.70;;;;;;;18.97;79.68;96520.16;7401575;19;20929;-74
2023/06/01 07:07:03;;;;;;;4.60;3.57;;;;;;;18.97;80.02;96496.81;7400713;19;20352;-74
2023/06/01 07:09:30;;;;;;;8.03;4.27;;;;;;;19.40;81.02;96515.72;7401761;19;20406;-75
2023/06/01 07:11:57;;;;;;;4.83;4.30;;;;;;;19.61;81.28;96507.75;7399675;19;20368;-74
2023/06/01 07:14:24;;;;;;;4.00;3.60;;;;;;;19.83;79.44;96515.84;7402000;19;20463;-74
2023/06/01 07:16:51;;;;;;;4.50;4.10;;;;;;;19.64;78.20;96517.75;7402112;19;20902;-74
2023/06/01 07:19:18;;;;;;;7.50;4.23;;;;;;;19.86;76.76;96515.06;7403026;19;20699;-74
2023/06/01 07:21:46;;;;;;;7.50;4.30;;;;;;;20.24;77.31;96518.94;7399999;19;20385;-73
2023/06/01 07:24:13;;;;;;;4.57;3.10;;;;;;;20.23;75.04;96514.72;7403404;19;20337;-73
2023/06/01 07:26:40;;;;;;;6.50;4.27;;;;;;;20.62;75.99;96523.53;7400650;19;20379;-73
2023/06/01 07:29:07;;;;;;;6.50;3.83;;;;;;;20.38;73.81;96521.59;7402498;19;20921;-73
2023/06/01 07:31:35;;;;;;;7.33;3.60;;;;;;;20.43;74.52;96496.28;7429824;19;20359;-77
2023/06/01 07:34:02;;;;;;;6.47;4.30;;;;;;;20.25;73.17;96520.47;7434702;19;20439;-76
2023/06/01 07:36:36;;;;;;;3.87;3.40;;;;;;;20.61;72.76;96503.19;7433179;19;20359;-75
2023/06/01 07:39:08;;;;;;;4.67;2.97;;;;;;;20.69;71.81;96512.00;7402930;19;20340;-72
2023/06/01 07:41:35;;;;;;;15.50;5.93;;;;;;;20.82;71.99;96509.66;7395131;19;20364;-72
2023/06/01 07:44:02;;;;;;;3.93;3.37;;;;;;;20.78;70.77;96522.34;7397769;19;20417;-72
2023/06/01 07:46:29;;;;;;;3.70;3.03;;;;;;;20.58;70.96;96501.28;7400581;19;20788;-72
2023/06/01 07:48:57;;;;;;;6.87;3.80;;;;;;;20.60;72.02;96508.94;7403820;19;20725;-73
2023/06/01 07:51:24;;;;;;;3.83;3.43;;;;;;;21.12;70.38;96498.44;7401576;19;20357;-73
2023/06/01 07:53:51;;;;;;;4.60;4.17;;;;;;;20.84;72.03;96483.19;7396373;19;20437;-73
2023/06/01 07:56:18;;;;;;;5.07;3.23;;;;;;;20.82;71.33;96486.22;7400107;19;20881;-73
2023/06/01 07:58:45;;;;;;;4.70;4.00;;;;;;;21.54;70.76;96481.34;7398727;19;20435;-73
2023/06/01 08:01:12;;;;;;;3.73;3.20;;;;;;;22.05;68.34;96502.19;7397943;19;20967;-73
2023/06/01 08:03:43;;;;;;;4.63;4.33;;;;;;;21.97;65.48;96499.91;7397002;19;20513;-73
2023/06/01 08:06:11;;;;;;;4.17;2.80;;;;;;;22.23;62.78;96471.63;7400278;19;20404;-73
2023/06/01 08:08:39;;;;;;;6.23;3.23;;;;;;;22.69;61.68;96503.50;7398744;19;20353;-72
2023/06/01 08:11:07;;;;;;;4.80;3.30;;;;;;;22.49;60.94;96505.28;7399214;19;20405;-73
2023/06/01 08:13:36;;;;;;;5.57;3.97;;;;;;;22.18;60.68;96494.38;7396514;19;20447;-73
2023/06/01 08:16:03;;;;;;;3.80;3.50;;;;;;;22.59;58.86;96494.38;7399303;19;20973;-73
2023/06/01 08:18:30;;;;;;;3.40;3.10;;;;;;;23.08;59.57;96496.97;7397801;19;20384;-74
2023/06/01 08:21:00;;;;;;;3.43;3.03;;;;;;;23.50;60.56;96514.53;7399483;19;20716;-74
2023/06/01 08:23:27;;;;;;;6.07;3.20;;;;;;;23.71;59.17;96489.97;7396869;19;20437;-73
2023/06/01 08:25:54;;;;;;;4.27;2.90;;;;;;;23.69;59.08;96492.34;7399726;19;20934;-73
2023/06/01 08:28:21;;;;;;;5.00;3.60;;;;;;;23.75;59.92;96458.28;7397866;19;20394;-73
2023/06/01 08:30:48;;;;;;;3.83;3.33;;;;;;;23.73;57.02;96490.34;7398629;19;20443;-73
2023/06/01 08:33:15;;;;;;;3.50;3.20;;;;;;;23.36;55.19;96475.00;7396443;19;20946;-73
2023/06/01 08:35:42;;;;;;;4.50;3.30;;;;;;;23.59;56.55;96491.31;7399843;19;20365;-74
2023/06/01 08:38:10;;;;;;;10.30;3.20;;;;;;;23.74;55.70;96496.50;7397699;19;20345;-73
2023/06/01 08:40:37;;;;;;;5.53;3.13;;;;;;;23.45;54.64;96472.59;7398691;19;20893;-72
2023/06/01 08:43:14;;;;;;;3.30;2.90;;;;;;;22.76;55.76;96457.63;7396721;19;20376;-73
2023/06/01 08:45:41;;;;;;;2.80;2.53;;;;;;;23.23;54.78;96492.91;7401537;19;20385;-73
2023/06/01 08:48:08;;;;;;;4.23;3.20;;;;;;;23.73;53.58;96506.53;7399490;19;20374;-73
2023/06/01 08:50:35;;;;;;;3.37;2.97;;;;;;;23.62;53.81;96494.34;7399692;19;20401;-74
2023/06/01 08:53:04;;;;;;;3.27;2.73;;;;;;;23.75;52.49;96469.09;7396374;19;20423;-73
2023/06/01 08:55:31;;;;;;;8.00;3.50;;;;;;;23.29;53.04;96465.09;7400895;19;20353;-74
2023/06/01 08:57:58;;;;;;;3.50;3.20;;;;;;;23.55;52.47;96473.59;7397561;19;20735;-74
2023/06/01 09:00:26;;;;;;;3.00;2.60;;;;;;;23.51;51.33;96487.16;7399364;19;20371;-74
2023/06/01 09:02:53;;;;;;;3.13;2.80;;;;;;;23.29;50.52;96489.38;7397009;19;20430;-73
2023/06/01 09:05:20;;;;;;;3.37;3.00;;;;;;;22.90;50.84;96468.25;7401178;19;20736;-74
2023/06/01 09:07:49;;;;;;;2.53;2.33;;;;;;;22.46;53.00;96442.16;7398329;19;20908;-74
2023/06/01 09:10:22;;;;;;;4.60;2.43;;;;;;;23.78;52.61;96468.28;7397058;19;20373;-74
2023/06/01 09:12:53;;;;;;;3.10;2.80;;;;;;;23.52;52.80;96475.19;7399642;19;20391;-74
2023/06/01 09:15:22;;;;;;;6.63;2.60;;;;;;;23.29;52.40;96458.94;7396799;19;20412;-74
2023/06/01 09:17:51;;;;;;;6.40;2.57;;;;;;;22.81;53.62;96475.28;7397748;19;20418;-74
2023/06/01 09:20:25;;;;;;;2.87;2.57;;;;;;;23.26;54.16;96473.22;7396492;19;20443;-74
2023/06/01 09:22:54;;;;;;;4.20;2.73;;;;;;;23.54;51.75;96469.38;7395291;19;20409;-74
2023/06/01 09:25:29;;;;;;;4.83;2.77;;;;;;;23.44;52.25;96444.06;7397830;19;20383;-74
2023/06/01 09:27:57;;;;;;;5.57;2.60;;;;;;;23.47;52.15;96472.94;7403659;19;20722;-75
2023/06/01 09:30:26;;;;;;;5.00;3.40;;;;;;;22.94;50.70;96468.97;7402358;19;20351;-75
2023/06/01 09:33:20;;;;;;;3.07;2.50;;;;;;;23.34;51.04;96476.59;7397584;19;20377;-74
2023/06/01 09:35:49;;;;;;;7.80;4.00;;;;;;;23.21;49.87;96471.72;7401841;19;20388;-74
2023/06/01 09:38:21;;;;;;;3.53;2.80;;;;;;;23.65;50.20;96469.25;7398729;19;20354;-75
2023/06/01 09:40:57;;;;;;;3.70;3.10;;;;;;;23.91;51.39;96467.72;7399974;19;20381;-75
2023/06/01 09:43:25;;;;;;;2.60;2.40;;;;;;;24.19;50.18;96467.25;7399619;19;20409;-74
2023/06/01 09:46:08;;;;;;;2.80;2.60;;;;;;;24.05;49.41;96462.09;7396100;19;20371;-74
2023/06/01 09:48:36;;;;;;;6.47;2.50;;;;;;;24.48;49.47;96448.63;7396729;19;20349;-74
2023/06/01 09:51:04;;;;;;;4.27;2.70;;;;;;;23.85;50.71;96462.00;7395652;19;20683;-75
2023/06/01 09:53:43;;;;;;;4.10;2.90;;;;;;;23.39;50.82;96433.72;7395575;19;20969;-74
2023/06/01 09:56:10;;;;;;;2.97;2.30;;;;;;;22.78;51.63;96443.72;7395977;19;20389;-74
2023/06/01 09:58:40;;;;;;;4.13;2.93;;;;;;;22.99;50.69;96448.91;7398740;19;20368;-74
2023/06/01 10:01:08;;;;;;;3.00;2.77;;;;;;;23.05;51.34;96443.81;7394793;19;20965;-74
2023/06/01 10:03:41;;;;;;;4.70;2.77;;;;;;;23.36;50.34;96447.25;7394346;19;20403;-74
2023/06/01 10:06:12;;;;;;;4.03;3.30;;;;;;;22.78;51.94;96444.50;7396067;19;20489;-74
2023/06/01 10:08:41;;;;;;;3.83;2.80;;;;;;;22.98;52.48;96448.16;7397021;19;20910;-74
2023/06/01 10:11:09;;;;;;;5.17;2.73;;;;;;;22.86;52.22;96429.81;7397134;19;20921;-73
2023/06/01 10:13:36;;;;;;;3.23;2.47;;;;;;;23.44;51.04;96421.72;7392942;19;20794;-73
2023/06/01 10:16:03;;;;;;;3.63;2.70;;;;;;;23.03;51.23;96440.75;7396232;19;20461;-73
2023/06/01 10:18:32;;;;;;;2.67;2.47;;;;;;;22.55;51.85;96410.09;7395195;19;20373;-73
2023/06/01 10:21:00;;;;;;;2.80;2.50;;;;;;;23.04;51.45;96431.50;7395304;19;20939;-73
2023/06/01 10:23:28;;;;;;;3.27;2.80;;;;;;;22.92;52.07;96440.88;7393369;19;20494;-74
2023/06/01 10:26:04;;;;;;;3.10;2.60;;;;;;;23.56;52.17;96448.13;7397308;19;20375;-74
2023/06/01 10:28:35;;;;;;;3.33;3.10;;;;;;;23.54;50.08;96431.59;7395059;19;20407;-72
2023/06/01 10:31:33;;;;;;;7.37;3.27;;;;;;;23.53;51.65;96446.25;7396945;19;20459;-73
2023/06/01 10:34:00;;;;;;;4.87;2.93;;;;;;;23.47;49.98;96440.53;7393925;19;20406;-74
2023/06/01 10:36:57;;;;;;;3.33;2.77;;;;;;;23.46;49.48;96430.91;7401797;19;20369;-74
2023/06/01 10:39:47;;;;;;;3.40;2.70;;;;;;;23.25;50.26;96393.47;7400616;19;20407;-74
2023/06/01 10:42:14;;;;;;;4.03;2.10;;;;;;;23.34;49.65;96436.88;7400067;19;20774;-75
2023/06/01 10:44:48;;;;;;;4.70;2.70;;;;;;;23.88;48.92;96434.94;7401783;19;20475;-76
2023/06/01 10:47:18;;;;;;;3.03;2.37;;;;;;;24.08;47.52;96429.59;7403729;19;20969;-75
2023/06/01 10:49:48;;;;;;;5.10;3.17;;;;;;;23.27;48.85;96431.59;7402206;19;20933;-75
2023/06/01 10:52:25;;;;;;;3.77;2.60;;;;;;;23.07;47.95;96428.75;7403486;19;20425;-75
2023/06/01 10:55:11;;;;;;;3.20;2.90;;;;;;;23.72;47.13;96385.44;7402701;19;20404;-76
2023/06/01 10:57:39;;;;;;;3.40;3.10;;;;;;;24.56;46.74;96412.16;7401947;19;20349;-75
2023/06/01 11:00:22;;;;;;;5.33;2.43;;;;;;;23.85;47.41;96433.06;7404198;19;20356;-75
2023/06/01 11:02:59;;;;;;;2.47;2.27;;;;;;;23.77;47.93;96423.56;7402036;19;20488;-74
2023/06/01 11:05:46;;;;;;;4.03;2.67;;;;;;;24.84;47.31;96418.97;7401220;19;20457;-75
2023/06/01 11:08:16;;;;;;;5.80;3.00;;;;;;;24.72;46.93;96423.06;7413011;19;20389;-74
2023/06/01 11:10:53;;;;;;;3.37;2.63;;;;;;;24.75;45.54;96421.44;7412699;19;20403;-74
2023/06/01 11:13:21;;;;;;;6.17;2.63;;;;;;;24.53;45.36;96418.38;7415766;19;20416;-74
2023/06/01 11:16:04;;;;;;;4.03;2.60;;;;;;;23.72;46.01;96417.84;7413674;19;20417;-73
2023/06/01 11:19:00;;;;;;;6.90;2.73;;;;;;;24.44;45.99;96405.44;7413439;19;20962;-73
2023/06/01 11:21:42;;;;;;;2.43;2.23;;;;;;;24.43;46.71;96405.81;7412585;19;20424;-73
2023/06/01 11:24:14;;;;;;;2.23;2.03;;;;;;;24.42;45.89;96393.50;7410709;19;20728;-73
2023/06/01 11:26:43;;;;;;;3.63;2.90;;;;;;;24.95;45.60;96359.19;7404558;19;20973;-73
2023/06/01 11:29:17;;;;;;;3.57;2.70;;;;;;;25.26;45.62;96357.78;7401955;19;20400;-74
2023/06/01 11:31:47;;;;;;;2.93;2.27;;;;;;;25.95;44.64;96390.19;7401407;19;20432;-75
2023/06/01 11:34:18;;;;;;;4.03;2.17;;;;;;;26.46;45.00;96390.47;7402324;19;20383;-75
2023/06/01 11:36:50;;;;;;;5.23;2.67;;;;;;;26.42;43.91;96397.91;7401381;19;20391;-75
2023/06/01 11:39:27;;;;;;;7.80;3.10;;;;;;;26.37;43.59;96382.19;7403835;19;20389;-75
2023/06/01 11:42:12;;;;;;;3.47;2.07;;;;;;;26.90;43.94;96382.63;7401178;19;20359;-75
2023/06/01 11:44:43;;;;;;;3.93;2.60;;;;;;;27.16;43.31;96381.50;7400783;19;20387;-75